createdAt,value
2019-03-18T00:01:30.120Z,58.30
2019-03-18T00:04:00.839Z,58.00
2019-03-18T00:06:31.384Z,57.80
2019-03-18T00:09:02.016Z,58.20
2019-03-18T00:11:33.760Z,58.00
2019-03-18T00:14:04.383Z,57.90
2019-03-18T00:16:34.923Z,57.60
2019-03-18T00:19:06.568Z,57.60
2019-03-18T00:21:38.248Z,57.40
2019-03-18T00:24:08.863Z,57.30
2019-03-18T00:26:39.542Z,57.40
2019-03-18T00:29:10.079Z,57.10
2019-03-18T00:31:41.747Z,57.20
2019-03-18T00:34:12.370Z,57.20
2019-03-18T00:36:43.012Z,57.40
2019-03-18T00:39:13.524Z,57.40
2019-03-18T00:41:45.203Z,57.40
2019-03-18T00:44:15.743Z,57.10
2019-03-18T00:46:46.272Z,56.90
2019-03-18T00:49:17.978Z,57.00
2019-03-18T00:51:50.495Z,56.90
2019-03-18T00:54:21.228Z,56.90
2019-03-18T00:56:51.931Z,57.10
2019-03-18T00:59:22.643Z,57.00
2019-03-18T01:01:54.177Z,57.10
2019-03-18T01:04:25.001Z,57.30
2019-03-18T01:06:55.621Z,57.40
2019-03-18T01:09:26.250Z,57.40
2019-03-18T01:11:57.932Z,57.30
2019-03-18T01:14:28.632Z,57.20
2019-03-18T01:16:59.182Z,57.40
2019-03-18T01:19:31.094Z,57.40
2019-03-18T01:22:02.587Z,57.30
2019-03-18T01:24:34.126Z,57.40
2019-03-18T01:27:04.883Z,57.50
2019-03-18T01:29:35.420Z,57.40
2019-03-18T01:32:08.145Z,57.60
2019-03-18T01:34:38.701Z,57.90
2019-03-18T01:37:09.328Z,58.10
2019-03-18T01:39:39.896Z,58.20
2019-03-18T01:42:11.767Z,58.30
2019-03-18T01:44:42.340Z,58.40
2019-03-18T01:47:13.094Z,58.50
2019-03-18T01:49:43.650Z,58.50
2019-03-18T01:52:15.357Z,58.50
2019-03-18T01:54:46.135Z,59.00
2019-03-18T01:57:16.934Z,59.10
2019-03-18T01:59:47.564Z,59.20
2019-03-18T02:02:19.331Z,59.40
2019-03-18T02:04:49.953Z,59.40
2019-03-18T02:07:20.733Z,59.70
2019-03-18T02:09:51.363Z,59.70
2019-03-18T02:12:23.048Z,59.70
2019-03-18T02:14:53.587Z,59.70
2019-03-18T02:17:24.541Z,59.70
2019-03-18T02:19:56.605Z,59.80
2019-03-18T02:22:27.238Z,59.70
2019-03-18T02:24:57.834Z,59.70
2019-03-18T02:27:28.560Z,59.60
2019-03-18T02:29:59.199Z,59.20
2019-03-18T02:32:29.960Z,59.00
2019-03-18T02:35:00.614Z,58.70
2019-03-18T02:37:31.442Z,58.60
2019-03-18T02:40:02.079Z,58.60
2019-03-18T02:42:33.860Z,58.60
2019-03-18T02:45:05.614Z,58.70
2019-03-18T02:47:36.356Z,58.60
2019-03-18T02:50:07.785Z,59.10
2019-03-18T02:52:38.469Z,59.10
2019-03-18T02:55:09.604Z,59.10
2019-03-18T02:57:40.410Z,59.40
2019-03-18T03:00:17.129Z,59.70
2019-03-18T03:02:47.766Z,60.10
2019-03-18T03:05:18.529Z,60.90
2019-03-18T03:07:49.322Z,61.70
2019-03-18T03:10:20.147Z,62.20
2019-03-18T03:12:50.816Z,62.60
2019-03-18T03:15:21.354Z,67.60
2019-03-18T03:17:52.095Z,71.10
2019-03-18T03:20:25.355Z,71.70
2019-03-18T03:22:56.104Z,73.80
2019-03-18T03:25:26.709Z,75.60
2019-03-18T03:27:57.684Z,77.40
2019-03-18T03:30:29.362Z,76.90
2019-03-18T03:33:00.056Z,77.50
2019-03-18T03:35:30.619Z,77.80
2019-03-18T03:38:01.377Z,78.30
2019-03-18T03:40:33.191Z,78.80
2019-03-18T03:43:03.428Z,78.90
2019-03-18T03:45:34.080Z,79.40
2019-03-18T03:48:04.830Z,78.90
2019-03-18T03:50:36.430Z,79.60
2019-03-18T03:53:07.139Z,80.10
2019-03-18T03:55:37.866Z,79.60
2019-03-18T03:58:08.597Z,79.20
2019-03-18T04:00:40.532Z,79.40
2019-03-18T04:03:11.406Z,79.70
2019-03-18T04:05:42.032Z,80.00
2019-03-18T04:08:12.806Z,80.60
2019-03-18T04:10:44.634Z,80.50
2019-03-18T04:13:15.383Z,80.70
2019-03-18T04:15:46.111Z,80.70
2019-03-18T04:18:16.849Z,80.00
2019-03-18T04:20:50.542Z,79.60
2019-03-18T04:23:21.285Z,79.00
2019-03-18T04:25:52.179Z,79.00
2019-03-18T04:28:22.892Z,79.00
2019-03-18T04:30:54.528Z,79.40
2019-03-18T04:33:25.297Z,79.30
2019-03-18T04:35:55.376Z,79.10
2019-03-18T04:38:26.110Z,79.20
2019-03-18T04:40:57.763Z,78.70
2019-03-18T04:43:28.536Z,78.00
2019-03-18T04:45:59.172Z,77.60
2019-03-18T04:48:29.898Z,76.60
2019-03-18T04:51:00.896Z,76.20
2019-03-18T04:53:31.539Z,74.90
2019-03-18T04:56:01.591Z,75.10
2019-03-18T04:58:32.310Z,74.00
2019-03-18T05:01:04.278Z,73.90
2019-03-18T05:03:35.032Z,73.20
2019-03-18T05:06:05.088Z,73.60
2019-03-18T05:08:35.300Z,75.30
2019-03-18T05:11:07.335Z,74.40
2019-03-18T05:13:37.535Z,75.00
2019-03-18T05:16:08.261Z,75.50
2019-03-18T05:18:39.017Z,74.70
2019-03-18T05:21:12.711Z,74.30
2019-03-18T05:23:43.441Z,74.20
2019-03-18T05:26:13.970Z,75.60
2019-03-18T05:28:44.756Z,74.40
2019-03-18T05:31:16.338Z,73.80
2019-03-18T05:33:47.056Z,73.00
2019-03-18T05:36:17.576Z,73.40
2019-03-18T05:38:47.638Z,73.30
2019-03-18T05:41:19.133Z,73.40
2019-03-18T05:43:49.321Z,73.00
2019-03-18T05:46:19.439Z,73.00
2019-03-18T05:48:50.185Z,73.20
2019-03-18T05:51:21.682Z,72.40
2019-03-18T05:53:51.766Z,72.50
2019-03-18T05:56:23.281Z,72.50
2019-03-18T05:58:54.203Z,71.80
2019-03-18T06:01:25.480Z,70.90
2019-03-18T06:03:56.155Z,70.60
2019-03-18T06:06:26.897Z,70.50
2019-03-18T06:08:57.091Z,70.60
2019-03-18T06:11:28.827Z,70.90
2019-03-18T06:13:59.491Z,70.80
2019-03-18T06:16:29.559Z,70.30
2019-03-18T06:19:00.432Z,69.70
2019-03-18T06:21:34.423Z,68.70
2019-03-18T06:24:06.380Z,68.00
2019-03-18T06:26:37.200Z,68.20
2019-03-18T06:29:07.915Z,67.90
2019-03-18T06:31:39.551Z,68.70
2019-03-18T06:34:11.193Z,69.20
2019-03-18T06:36:41.696Z,69.60
2019-03-18T06:39:12.337Z,69.20
2019-03-18T06:41:43.922Z,66.00
2019-03-18T06:44:14.669Z,61.10
2019-03-18T06:46:45.271Z,56.10
2019-03-18T06:49:15.900Z,52.40
2019-03-18T06:51:48.372Z,47.80
2019-03-18T06:54:19.087Z,43.90
2019-03-18T06:56:49.638Z,42.90
2019-03-18T06:59:20.308Z,43.00
2019-03-18T07:01:51.849Z,45.30
2019-03-18T07:04:22.606Z,47.90
2019-03-18T07:06:53.330Z,51.10
2019-03-18T07:09:24.053Z,53.70
2019-03-18T07:11:55.854Z,55.80
2019-03-18T07:14:26.596Z,57.50
2019-03-18T07:16:57.212Z,59.10
2019-03-18T07:19:27.857Z,60.90
2019-03-18T07:22:03.184Z,59.50
2019-03-18T07:24:33.925Z,58.40
2019-03-18T07:27:04.536Z,57.00
2019-03-18T07:29:35.323Z,56.90
2019-03-18T07:32:06.094Z,57.00
2019-03-18T07:34:36.797Z,57.80
2019-03-18T07:37:07.339Z,58.30
2019-03-18T07:39:38.092Z,58.80
2019-03-18T07:42:08.720Z,59.00
2019-03-18T07:44:39.459Z,59.30
2019-03-18T07:47:10.072Z,59.70
2019-03-18T07:49:40.822Z,61.10
2019-03-18T07:52:11.438Z,59.40
2019-03-18T07:54:42.137Z,60.30
2019-03-18T07:57:12.664Z,60.00
2019-03-18T07:59:43.363Z,60.30
2019-03-18T08:02:13.973Z,61.50
2019-03-18T08:04:45.722Z,61.60
2019-03-18T08:07:17.315Z,60.20
2019-03-18T08:09:47.952Z,59.10
2019-03-18T08:12:19.468Z,58.50
2019-03-18T08:14:50.082Z,57.90
2019-03-18T08:17:20.593Z,57.50
2019-03-18T08:19:51.241Z,57.00
2019-03-18T08:22:25.312Z,56.00
2019-03-18T08:24:55.923Z,56.10
2019-03-18T08:27:26.423Z,55.20
2019-03-18T08:29:57.127Z,55.50
2019-03-18T08:32:27.682Z,54.90
2019-03-18T08:34:58.363Z,54.00
2019-03-18T08:37:28.886Z,53.90
2019-03-18T08:39:59.614Z,52.90
2019-03-18T08:42:30.254Z,53.80
2019-03-18T08:45:01.011Z,51.60
2019-03-18T08:47:31.718Z,52.30
2019-03-18T08:50:02.442Z,52.00
2019-03-18T08:52:32.973Z,50.20
2019-03-18T08:55:03.706Z,50.30
2019-03-18T08:57:34.271Z,50.00
2019-03-18T09:00:07.888Z,50.80
2019-03-18T09:02:38.503Z,48.70
2019-03-18T09:05:10.110Z,47.50
2019-03-18T09:07:40.637Z,46.40
2019-03-18T09:10:13.169Z,45.60
2019-03-18T09:12:44.001Z,42.50
2019-03-18T09:15:15.018Z,40.50
2019-03-18T09:17:45.551Z,40.10
2019-03-18T09:20:17.177Z,39.70
2019-03-18T09:22:51.324Z,39.30
2019-03-18T09:25:22.061Z,39.60
2019-03-18T09:27:52.690Z,41.00
2019-03-18T09:30:24.546Z,41.80
2019-03-18T09:32:55.151Z,43.10
2019-03-18T09:35:25.808Z,43.60
2019-03-18T09:37:56.426Z,44.50
2019-03-18T09:40:29.376Z,44.00
2019-03-18T09:43:00.199Z,45.60
2019-03-18T09:45:31.032Z,45.70
2019-03-18T09:48:01.654Z,46.00
2019-03-18T09:50:33.382Z,46.80
2019-03-18T09:53:04.023Z,46.10
2019-03-18T09:55:34.746Z,44.30
2019-03-18T09:58:05.459Z,40.30
2019-03-18T10:00:37.127Z,37.00
2019-03-18T10:03:07.724Z,35.80
2019-03-18T10:05:38.328Z,34.50
2019-03-18T10:08:08.839Z,35.50
2019-03-18T10:10:40.724Z,36.50
2019-03-18T10:13:11.347Z,37.10
2019-03-18T10:15:41.986Z,39.40
2019-03-18T10:18:12.615Z,40.40
2019-03-18T10:20:44.343Z,40.10
2019-03-18T10:23:18.685Z,41.20
2019-03-18T10:25:49.376Z,40.90
2019-03-18T10:28:19.872Z,42.00
2019-03-18T10:30:51.554Z,42.60
2019-03-18T10:33:22.088Z,42.70
2019-03-18T10:35:54.207Z,43.10
2019-03-18T10:38:24.960Z,43.10
2019-03-18T10:40:59.441Z,42.00
2019-03-18T10:43:28.692Z,41.50
2019-03-18T10:45:59.522Z,42.30
2019-03-18T10:48:30.044Z,42.80
2019-03-18T10:51:01.609Z,42.90
2019-03-18T10:53:32.206Z,42.40
2019-03-18T10:56:07.667Z,43.20
2019-03-18T10:58:37.209Z,42.20
2019-03-18T11:01:08.006Z,42.00
2019-03-18T11:03:39.090Z,42.10
2019-03-18T11:06:09.841Z,41.10
2019-03-18T11:08:40.356Z,40.50
2019-03-18T11:11:12.044Z,40.80
2019-03-18T11:13:42.573Z,41.30
2019-03-18T11:16:13.485Z,41.20
2019-03-18T11:18:44.099Z,41.50
2019-03-18T11:26:29.258Z,42.70
2019-03-18T11:28:59.887Z,43.00
2019-03-18T11:31:30.599Z,42.50
2019-03-18T11:34:01.196Z,42.10
2019-03-18T11:36:31.844Z,43.30
2019-03-18T11:39:02.517Z,43.90
2019-03-18T11:41:33.307Z,43.90
2019-03-18T11:44:03.992Z,44.90
2019-03-18T11:46:34.804Z,45.70
2019-03-18T11:49:05.442Z,45.10
2019-03-18T11:54:54.914Z,45.60
2019-03-18T11:57:27.310Z,44.60
2019-03-18T11:59:58.309Z,44.60
2019-03-18T12:02:29.090Z,44.60
2019-03-18T12:05:00.048Z,43.50
2019-03-18T12:07:31.169Z,43.40
2019-03-18T12:10:15.257Z,43.60
2019-03-18T12:12:49.054Z,42.60
2019-03-18T12:15:24.652Z,41.20
2019-03-18T12:17:55.707Z,42.50
2019-03-18T12:20:27.295Z,42.80
2019-03-18T12:22:58.320Z,43.20
2019-03-18T12:25:30.139Z,42.70
2019-03-18T12:28:01.094Z,42.10
2019-03-18T12:30:34.884Z,40.90
2019-03-18T12:33:07.278Z,41.10
2019-03-18T12:35:38.742Z,40.30
2019-03-18T12:38:23.659Z,39.50
2019-03-18T12:40:57.226Z,40.40
2019-03-18T12:43:27.922Z,40.30
2019-03-18T12:45:58.567Z,40.00
2019-03-18T12:48:29.411Z,40.60
2019-03-18T12:51:00.055Z,41.60
2019-03-18T12:53:30.721Z,42.60
2019-03-18T12:56:01.321Z,43.00
2019-03-18T12:58:31.964Z,43.50
2019-03-18T13:01:12.457Z,41.90
2019-03-18T13:03:35.828Z,41.30
2019-03-18T13:06:06.462Z,40.90
2019-03-18T13:08:37.197Z,40.80
2019-03-18T13:11:08.685Z,40.30
2019-03-18T13:13:39.422Z,41.70
2019-03-18T13:16:09.941Z,42.30
2019-03-18T13:18:40.599Z,42.80
2019-03-18T13:21:12.237Z,42.90
2019-03-18T13:23:42.883Z,40.90
2019-03-18T13:26:13.507Z,40.00
2019-03-18T13:28:44.160Z,40.30
2019-03-18T13:31:16.779Z,40.60
2019-03-18T13:33:47.476Z,40.50
2019-03-18T13:36:18.089Z,47.40
2019-03-18T13:38:48.723Z,49.00
2019-03-18T13:41:20.382Z,51.00
2019-03-18T13:43:51.112Z,52.70
2019-03-18T13:46:21.633Z,55.20
2019-03-18T13:48:52.419Z,56.80
2019-03-18T13:51:24.042Z,57.80
2019-03-18T13:53:54.763Z,58.50
2019-03-18T13:56:25.284Z,59.10
2019-03-18T13:58:56.919Z,59.10
2019-03-18T14:01:27.495Z,57.90
2019-03-18T14:03:58.432Z,58.50
2019-03-18T14:06:29.134Z,59.50
2019-03-18T14:08:59.877Z,60.00
2019-03-18T14:11:30.597Z,59.90
2019-03-18T14:14:01.240Z,60.50
2019-03-18T14:16:31.955Z,59.30
2019-03-18T14:19:02.682Z,58.40
2019-03-18T14:21:34.437Z,60.10
2019-03-18T14:24:05.187Z,59.70
2019-03-18T14:26:35.910Z,59.50
2019-03-18T14:29:07.462Z,60.20
2019-03-18T14:31:38.106Z,60.40
2019-03-18T14:34:08.912Z,60.80
2019-03-18T14:36:39.524Z,60.90
2019-03-18T14:39:10.264Z,59.90
2019-03-18T14:41:40.933Z,59.10
2019-03-18T14:44:11.651Z,59.70
2019-03-18T14:46:42.193Z,59.60
2019-03-18T14:49:12.820Z,60.40
2019-03-18T14:51:46.060Z,60.80
2019-03-18T14:54:15.591Z,61.10
2019-03-18T14:56:46.106Z,61.40
2019-03-18T14:59:16.724Z,62.10
2019-03-18T15:01:47.329Z,61.10
2019-03-18T15:04:18.138Z,60.90
2019-03-18T15:06:48.912Z,59.80
2019-03-18T15:09:19.629Z,60.40
2019-03-18T15:11:50.259Z,61.90
2019-03-18T15:14:22.099Z,61.40
2019-03-18T15:16:52.734Z,60.10
2019-03-18T15:19:23.932Z,60.00
2019-03-18T15:21:58.660Z,60.60
2019-03-18T15:24:26.727Z,59.50
2019-03-18T15:26:57.346Z,59.70
2019-03-18T15:29:28.328Z,59.90
2019-03-18T15:31:59.898Z,60.60
2019-03-18T15:34:30.124Z,59.70
2019-03-18T15:37:00.639Z,60.70
2019-03-18T15:39:31.266Z,61.80
2019-03-18T15:45:33.287Z,60.90
2019-03-18T15:48:05.123Z,61.00
2019-03-18T15:50:36.616Z,62.20
2019-03-18T15:53:06.670Z,63.00
2019-03-18T15:55:38.339Z,62.60
2019-03-18T15:58:08.860Z,62.00
2019-03-18T16:00:39.978Z,62.50
2019-03-18T16:03:10.615Z,62.60
2019-03-18T16:05:41.385Z,62.90
2019-03-18T16:08:11.419Z,63.30
2019-03-18T16:10:43.118Z,64.00
2019-03-18T16:13:13.185Z,64.70
2019-03-18T16:15:43.963Z,64.40
2019-03-18T16:18:14.613Z,64.40
2019-03-18T16:20:46.339Z,64.40
2019-03-18T16:23:16.949Z,64.80
2019-03-18T16:25:47.075Z,64.40
2019-03-18T16:28:17.606Z,64.40
2019-03-18T16:30:50.322Z,64.40
2019-03-18T16:33:20.946Z,64.00
2019-03-18T16:35:51.756Z,64.00
2019-03-18T16:38:21.789Z,64.60
2019-03-18T16:40:52.952Z,65.20
2019-03-18T16:43:22.931Z,64.80
2019-03-18T16:45:53.679Z,64.20
2019-03-18T16:48:23.841Z,64.20
2019-03-18T16:50:55.676Z,64.80
2019-03-18T16:53:25.867Z,65.30
2019-03-18T16:55:56.722Z,66.10
2019-03-18T16:58:26.770Z,66.60
2019-03-18T17:00:58.531Z,67.40
2019-03-18T17:03:28.555Z,68.30
2019-03-18T17:05:58.699Z,67.80
2019-03-18T17:08:28.739Z,66.50
2019-03-18T17:10:59.823Z,65.30
2019-03-18T17:13:29.901Z,65.70
2019-03-18T17:16:00.064Z,66.10
2019-03-18T17:18:30.574Z,66.40
2019-03-18T17:21:01.636Z,66.40
2019-03-18T17:23:31.693Z,66.80
2019-03-18T17:26:01.860Z,67.10
2019-03-18T17:28:31.831Z,67.00
2019-03-18T17:31:03.812Z,67.30
2019-03-18T17:33:33.787Z,67.30
2019-03-18T17:36:04.064Z,67.20
2019-03-18T17:38:34.197Z,67.20
2019-03-18T17:41:05.440Z,67.10
2019-03-18T17:43:35.396Z,67.30
2019-03-18T17:46:06.199Z,67.60
2019-03-18T17:48:36.865Z,67.70
2019-03-18T17:51:21.893Z,67.60
2019-03-18T17:53:52.079Z,67.70
2019-03-18T17:56:30.262Z,67.10
2019-03-18T17:58:54.036Z,66.90
2019-03-18T18:01:24.426Z,66.80
2019-03-18T18:03:54.690Z,66.80
2019-03-18T18:06:24.955Z,66.30
2019-03-18T18:08:55.034Z,65.60
2019-03-18T18:11:25.214Z,65.40
2019-03-18T18:13:55.171Z,65.30
2019-03-18T18:16:25.250Z,65.50
2019-03-18T18:18:55.205Z,65.50
2019-03-18T18:21:26.280Z,65.90
2019-03-18T18:23:56.342Z,66.40
2019-03-18T18:26:26.800Z,67.10
2019-03-18T18:28:57.115Z,67.60
2019-03-18T18:31:28.362Z,67.90
2019-03-18T18:33:58.556Z,67.60
2019-03-18T18:36:28.809Z,67.80
2019-03-18T18:39:02.765Z,67.70
2019-03-18T18:41:33.245Z,67.40
2019-03-18T18:44:03.481Z,67.50
2019-03-18T18:46:33.746Z,67.30
2019-03-18T18:49:04.184Z,67.80
2019-03-18T18:51:34.313Z,68.10
2019-03-18T18:54:04.368Z,68.00
2019-03-18T18:56:34.522Z,68.40
2019-03-18T18:59:04.474Z,69.00
2019-03-18T19:01:34.709Z,69.20
2019-03-18T19:04:04.770Z,69.40
2019-03-18T19:06:34.891Z,69.60
2019-03-18T19:09:07.183Z,69.80
2019-03-18T19:11:37.326Z,70.10
2019-03-18T19:14:07.377Z,70.60
2019-03-18T19:16:37.430Z,70.70
2019-03-18T19:19:07.470Z,71.20
2019-03-18T19:21:37.599Z,71.20
2019-03-18T19:24:07.642Z,71.50
2019-03-18T19:26:37.723Z,71.80
2019-03-18T19:29:07.679Z,72.00
2019-03-18T19:31:40.219Z,72.30
2019-03-18T19:34:10.259Z,72.30
2019-03-18T19:36:40.479Z,71.80
2019-03-18T19:39:10.502Z,71.70
2019-03-18T19:41:40.806Z,71.20
2019-03-18T19:44:10.831Z,71.00
2019-03-18T19:46:41.114Z,71.40
2019-03-18T19:49:11.161Z,71.30
2019-03-18T19:51:41.277Z,71.80
2019-03-18T19:54:12.879Z,71.90
2019-03-18T19:56:42.909Z,72.30
2019-03-18T19:59:12.954Z,72.50
2019-03-18T20:01:43.163Z,72.80
2019-03-18T20:04:13.117Z,73.60
2019-03-18T20:06:43.235Z,73.10
2019-03-18T20:09:13.259Z,73.20
2019-03-18T20:11:43.450Z,73.00
2019-03-18T20:14:13.816Z,73.20
2019-03-18T20:16:43.966Z,74.10
2019-03-18T20:19:16.148Z,74.20
2019-03-18T20:21:46.436Z,74.10
2019-03-18T20:24:24.266Z,74.60
2019-03-18T20:27:02.069Z,74.60
2019-03-18T20:29:35.966Z,74.60
2019-03-18T20:32:07.639Z,74.90
2019-03-18T20:34:38.302Z,74.90
2019-03-18T20:37:08.729Z,75.00
2019-03-18T20:39:39.049Z,74.90
2019-03-18T20:42:10.557Z,74.70
2019-03-18T20:44:41.878Z,74.40
2019-03-18T20:47:12.642Z,73.90
2019-03-18T20:49:42.781Z,73.70
2019-03-18T20:52:17.071Z,74.00
2019-03-18T20:54:47.267Z,73.60
2019-03-18T20:57:18.977Z,73.40
2019-03-18T20:59:49.675Z,73.70
2019-03-18T21:02:21.227Z,74.00
2019-03-18T21:04:53.161Z,73.90
2019-03-18T21:07:26.491Z,73.60
2019-03-18T21:09:58.369Z,73.70
2019-03-18T21:12:29.685Z,73.80
2019-03-18T21:15:01.000Z,73.40
2019-03-18T21:17:34.005Z,73.40
2019-03-18T21:20:11.569Z,73.40
2019-03-18T21:22:47.109Z,73.60
2019-03-18T21:25:17.413Z,73.90
2019-03-18T21:27:48.686Z,73.40
2019-03-18T21:30:21.017Z,73.40
2019-03-18T21:32:54.038Z,73.40
2019-03-18T21:35:24.692Z,73.40
2019-03-18T21:37:54.845Z,73.40
2019-03-18T21:40:25.742Z,73.50
2019-03-18T21:42:55.892Z,73.30
2019-03-18T21:45:25.951Z,73.60
2019-03-18T21:47:56.220Z,73.70
2019-03-18T21:50:26.387Z,73.90
2019-03-18T21:52:57.447Z,73.80
2019-03-18T21:55:27.511Z,73.70
2019-03-18T21:57:57.663Z,73.80
2019-03-18T22:00:28.699Z,73.80
2019-03-18T22:02:58.817Z,73.90
2019-03-18T22:05:28.778Z,73.80
2019-03-18T22:07:58.984Z,74.10
2019-03-18T22:10:30.054Z,74.40
2019-03-18T22:13:00.242Z,74.50
2019-03-18T22:15:30.194Z,74.60
2019-03-18T22:18:00.254Z,74.90
2019-03-18T22:20:31.256Z,74.80
2019-03-18T22:23:01.408Z,75.00
2019-03-18T22:25:31.366Z,74.90
2019-03-18T22:28:01.413Z,74.70
2019-03-18T22:30:32.347Z,75.00
2019-03-18T22:33:03.452Z,74.90
2019-03-18T22:35:33.406Z,75.20
2019-03-18T22:38:03.519Z,75.30
2019-03-18T22:40:34.450Z,75.30
2019-03-18T22:43:04.618Z,75.00
2019-03-18T22:45:34.566Z,75.30
2019-03-18T22:48:04.743Z,75.50
2019-03-18T22:50:35.749Z,75.50
2019-03-18T22:53:06.025Z,75.30
2019-03-18T22:55:36.010Z,75.20
2019-03-18T22:58:06.261Z,75.50
2019-03-18T23:00:47.249Z,75.30
2019-03-18T23:03:17.599Z,75.20
2019-03-18T23:05:47.547Z,75.30
2019-03-18T23:08:17.675Z,75.30
2019-03-18T23:10:48.671Z,75.70
2019-03-18T23:13:18.745Z,75.70
2019-03-18T23:15:48.775Z,75.60
2019-03-18T23:18:19.460Z,75.30
2019-03-18T23:20:50.404Z,75.70
2019-03-18T23:23:20.645Z,75.70
2019-03-18T23:25:50.742Z,75.80
2019-03-18T23:28:21.106Z,75.60
2019-03-18T23:30:52.285Z,75.60
2019-03-18T23:33:23.483Z,75.90
2019-03-18T23:35:53.627Z,76.00
2019-03-18T23:38:23.756Z,75.80
2019-03-18T23:40:54.703Z,75.60
2019-03-18T23:43:24.747Z,75.60
2019-03-18T23:45:54.711Z,75.30
2019-03-18T23:48:24.840Z,75.10
2019-03-18T23:50:55.813Z,75.30
2019-03-18T23:53:25.985Z,75.30
2019-03-18T23:55:56.029Z,74.90
2019-03-18T23:58:26.110Z,74.60
